createdAt,value
2022-09-26T00:00:39.135Z,12.17
2022-09-26T00:03:06.220Z,12.17
2022-09-26T00:05:33.849Z,12.15
2022-09-26T00:08:00.679Z,12.14
2022-09-26T00:10:27.417Z,12.13
2022-09-26T00:12:55.518Z,12.12
2022-09-26T00:15:23.022Z,12.13
2022-09-26T00:17:49.740Z,12.12
2022-09-26T00:20:16.661Z,12.14
2022-09-26T00:22:43.231Z,12.16
2022-09-26T00:25:09.997Z,12.15
2022-09-26T00:27:36.649Z,12.16
2022-09-26T00:30:03.608Z,12.20
2022-09-26T00:32:30.273Z,12.18
2022-09-26T00:34:56.886Z,12.30
2022-09-26T00:37:23.483Z,12.30
2022-09-26T00:39:50.089Z,12.28
2022-09-26T00:42:16.637Z,12.25
2022-09-26T00:44:44.931Z,12.22
2022-09-26T00:47:24.587Z,12.28
2022-09-26T00:49:56.119Z,12.21
2022-09-26T00:52:30.819Z,12.16
2022-09-26T00:55:01.493Z,12.11
2022-09-26T00:57:35.626Z,12.06
2022-09-26T01:00:09.250Z,12.12
2022-09-26T01:02:36.155Z,12.11
2022-09-26T01:05:05.814Z,12.06
2022-09-26T01:07:33.928Z,12.06
2022-09-26T01:10:02.674Z,12.05
2022-09-26T01:12:29.342Z,12.11
2022-09-26T01:14:58.204Z,12.06
2022-09-26T01:17:26.465Z,12.12
2022-09-26T01:20:02.913Z,12.06
2022-09-26T01:22:44.707Z,12.08
2022-09-26T01:25:23.805Z,12.09
2022-09-26T01:27:51.374Z,12.07
2022-09-26T01:30:22.224Z,12.10
2022-09-26T01:33:09.760Z,12.07
2022-09-26T01:35:51.402Z,12.06
2022-09-26T01:38:48.500Z,12.05
2022-09-26T01:41:32.976Z,12.14
2022-09-26T01:44:07.064Z,12.08
2022-09-26T01:46:42.650Z,12.07
2022-09-26T01:49:16.344Z,11.99
2022-09-26T01:52:08.732Z,12.00
2022-09-26T01:54:46.570Z,12.00
2022-09-26T01:57:24.787Z,11.99
2022-09-26T01:59:57.327Z,11.98
2022-09-26T02:02:27.399Z,11.97
2022-09-26T02:04:59.994Z,11.96
2022-09-26T02:07:35.814Z,11.94
2022-09-26T02:10:13.278Z,11.91
2022-09-26T02:12:45.437Z,11.92
2022-09-26T02:15:16.631Z,11.94
2022-09-26T02:17:48.689Z,11.92
2022-09-26T02:20:24.457Z,11.93
2022-09-26T02:22:51.151Z,11.92
2022-09-26T02:25:17.943Z,11.94
2022-09-26T02:27:44.691Z,11.91
2022-09-26T02:30:12.221Z,11.94
2022-09-26T02:32:40.433Z,11.95
2022-09-26T02:35:27.629Z,11.94
2022-09-26T02:37:54.512Z,11.97
2022-09-26T02:40:30.431Z,11.98
2022-09-26T02:43:11.958Z,11.98
2022-09-26T02:45:47.442Z,12.00
2022-09-26T02:48:36.995Z,12.09
2022-09-26T02:51:16.077Z,12.09
2022-09-26T02:54:00.846Z,12.06
2022-09-26T02:56:38.658Z,12.05
2022-09-26T02:59:13.453Z,12.06
2022-09-26T03:01:55.051Z,12.13
2022-09-26T03:04:38.041Z,12.08
2022-09-26T03:07:10.121Z,12.21
2022-09-26T03:09:37.573Z,12.10
2022-09-26T03:12:07.829Z,12.14
2022-09-26T03:14:36.699Z,12.06
2022-09-26T03:17:04.427Z,12.04
2022-09-26T03:19:45.960Z,12.00
2022-09-26T03:22:13.148Z,12.01
2022-09-26T03:24:42.197Z,11.97
2022-09-26T03:27:11.862Z,11.96
2022-09-26T03:29:39.223Z,11.94
2022-09-26T03:32:06.671Z,11.95
2022-09-26T03:34:33.517Z,11.97
2022-09-26T03:37:00.119Z,11.98
2022-09-26T03:39:26.829Z,11.92
2022-09-26T03:41:53.715Z,11.89
2022-09-26T03:44:21.760Z,11.89
2022-09-26T03:46:48.428Z,11.88
2022-09-26T03:49:15.607Z,11.87
2022-09-26T03:51:44.265Z,11.91
2022-09-26T03:54:14.121Z,11.91
2022-09-26T03:56:41.279Z,11.87
2022-09-26T03:59:09.001Z,11.90
2022-09-26T04:01:35.706Z,11.92
2022-09-26T04:06:50.880Z,11.93
2022-09-26T04:09:18.478Z,11.92
2022-09-26T04:11:46.381Z,12.03
2022-09-26T04:14:13.031Z,11.99
2022-09-26T04:16:39.731Z,12.00
2022-09-26T04:19:06.781Z,12.10
2022-09-26T04:21:35.378Z,12.06
2022-09-26T04:24:02.861Z,12.17
2022-09-26T04:26:29.435Z,12.10
2022-09-26T04:28:57.706Z,12.14
2022-09-26T04:31:27.582Z,12.18
2022-09-26T04:33:55.735Z,12.16
2022-09-26T04:36:23.095Z,12.16
2022-09-26T04:38:49.776Z,12.14
2022-09-26T04:41:19.092Z,12.07
2022-09-26T04:43:46.414Z,12.09
2022-09-26T04:46:18.586Z,11.92
2022-09-26T04:48:49.088Z,11.92
2022-09-26T04:51:17.515Z,11.86
2022-09-26T04:53:44.592Z,11.88
2022-09-26T04:56:13.969Z,11.88
2022-09-26T04:58:43.341Z,11.84
2022-09-26T05:01:12.645Z,11.74
2022-09-26T05:03:40.237Z,11.64
2022-09-26T05:06:09.042Z,11.63
2022-09-26T05:08:39.544Z,11.61
2022-09-26T05:11:07.489Z,11.60
2022-09-26T05:13:35.490Z,11.54
2022-09-26T05:16:03.095Z,11.52
2022-09-26T05:18:35.100Z,11.52
2022-09-26T05:21:03.259Z,11.55
2022-09-26T05:23:45.585Z,11.54
2022-09-26T05:26:22.126Z,11.62
2022-09-26T05:28:51.892Z,11.53
2022-09-26T05:31:19.257Z,11.57
2022-09-26T05:33:46.413Z,11.54
2022-09-26T05:36:13.815Z,11.58
2022-09-26T05:38:40.463Z,11.54
2022-09-26T05:41:07.102Z,11.50
2022-09-26T05:43:35.055Z,11.66
2022-09-26T05:46:06.803Z,11.90
2022-09-26T05:48:35.267Z,11.77
2022-09-26T05:51:06.583Z,11.67
2022-09-26T05:53:33.420Z,11.64
2022-09-26T05:56:03.396Z,11.58
2022-09-26T05:58:34.819Z,11.73
2022-09-26T06:01:10.811Z,11.84
2022-09-26T06:03:38.328Z,11.90
2022-09-26T06:06:07.901Z,11.89
2022-09-26T06:08:35.861Z,11.95
2022-09-26T06:11:05.977Z,11.92
2022-09-26T06:13:34.358Z,11.76
2022-09-26T06:16:06.231Z,11.99
2022-09-26T06:18:34.223Z,12.07
2022-09-26T06:21:03.666Z,12.00
2022-09-26T06:23:31.797Z,12.00
2022-09-26T06:25:59.078Z,12.05
2022-09-26T06:28:27.030Z,12.06
2022-09-26T06:30:54.717Z,12.13
2022-09-26T06:33:21.823Z,12.18
2022-09-26T06:35:58.956Z,12.16
2022-09-26T06:38:25.577Z,12.15
2022-09-26T06:40:53.170Z,12.17
2022-09-26T06:43:19.859Z,12.08
2022-09-26T06:45:48.955Z,12.12
2022-09-26T06:48:21.013Z,12.14
2022-09-26T06:50:52.975Z,12.13
2022-09-26T06:53:19.878Z,12.20
2022-09-26T06:55:46.536Z,12.22
2022-09-26T06:58:13.343Z,12.13
2022-09-26T07:00:40.497Z,12.16
2022-09-26T07:03:08.296Z,12.22
2022-09-26T07:05:35.127Z,12.15
2022-09-26T07:08:02.859Z,12.24
2022-09-26T07:10:30.467Z,12.32
2022-09-26T07:13:06.375Z,12.33
2022-09-26T07:15:34.483Z,12.31
2022-09-26T07:18:02.801Z,12.33
2022-09-26T07:20:32.429Z,12.26
2022-09-26T07:23:03.729Z,12.35
2022-09-26T07:25:31.922Z,12.39
2022-09-26T07:27:58.825Z,12.40
2022-09-26T07:30:25.825Z,12.44
2022-09-26T07:32:52.565Z,12.42
2022-09-26T07:35:19.198Z,12.52
2022-09-26T07:37:46.299Z,12.51
2022-09-26T07:40:13.011Z,12.58
2022-09-26T07:42:39.794Z,12.51
2022-09-26T07:45:24.631Z,12.62
2022-09-26T07:48:08.763Z,12.72
2022-09-26T07:50:36.184Z,12.77
2022-09-26T07:53:03.053Z,12.76
2022-09-26T07:55:29.664Z,12.72
2022-09-26T07:57:58.073Z,12.74
2022-09-26T08:00:26.380Z,12.90
2022-09-26T08:02:53.145Z,12.88
2022-09-26T08:05:20.903Z,12.97
2022-09-26T08:07:48.637Z,12.89
2022-09-26T08:10:24.072Z,12.84
2022-09-26T08:12:50.764Z,12.87
2022-09-26T08:15:17.427Z,12.86
2022-09-26T08:17:44.267Z,12.83
2022-09-26T08:20:12.831Z,12.87
2022-09-26T08:22:39.438Z,12.88
2022-09-26T08:25:07.259Z,12.97
2022-09-26T08:27:34.561Z,13.02
2022-09-26T08:30:04.261Z,13.16
2022-09-26T08:32:32.859Z,13.22
2022-09-26T08:35:00.219Z,13.23
2022-09-26T08:37:28.114Z,13.27
2022-09-26T08:39:54.767Z,13.17
2022-09-26T08:42:40.636Z,13.15
2022-09-26T08:45:47.871Z,13.20
2022-09-26T08:48:39.520Z,13.24
2022-09-26T08:51:29.042Z,13.17
2022-09-26T08:54:00.987Z,13.24
2022-09-26T08:56:35.503Z,13.29
2022-09-26T08:59:06.007Z,13.51
2022-09-26T09:01:38.846Z,13.61
2022-09-26T09:04:15.530Z,13.69
2022-09-26T09:06:43.617Z,13.77
2022-09-26T09:09:16.344Z,13.77
2022-09-26T09:12:05.654Z,13.75
2022-09-26T09:14:44.330Z,13.66
2022-09-26T09:17:13.787Z,13.60
2022-09-26T09:19:48.839Z,13.56
2022-09-26T09:22:42.083Z,13.53
2022-09-26T09:25:14.672Z,13.56
2022-09-26T09:28:01.430Z,13.56
2022-09-26T09:30:43.565Z,13.50
2022-09-26T09:33:13.561Z,13.46
2022-09-26T09:35:46.822Z,13.46
2022-09-26T09:38:18.218Z,13.49
2022-09-26T09:41:04.442Z,13.44
2022-09-26T09:43:38.003Z,13.43
2022-09-26T09:46:14.054Z,13.43
2022-09-26T09:48:41.168Z,13.41
2022-09-26T09:51:29.298Z,13.43
2022-09-26T09:54:20.750Z,13.55
2022-09-26T09:57:22.585Z,13.58
2022-09-26T10:00:18.096Z,13.55
2022-09-26T10:03:20.146Z,13.64
2022-09-26T10:05:50.340Z,13.82
2022-09-26T10:08:27.811Z,13.90
2022-09-26T10:11:12.921Z,13.96
2022-09-26T10:13:43.052Z,14.13
2022-09-26T10:16:15.236Z,14.21
2022-09-26T10:19:03.378Z,14.30
2022-09-26T10:21:34.595Z,14.33
2022-09-26T10:24:04.824Z,14.39
2022-09-26T10:26:37.075Z,14.33
2022-09-26T10:29:21.768Z,14.42
2022-09-26T10:31:56.226Z,14.57
2022-09-26T10:34:28.588Z,14.67
2022-09-26T10:36:56.188Z,14.79
2022-09-26T10:39:41.236Z,14.90
2022-09-26T10:42:28.619Z,14.92
2022-09-26T10:45:03.833Z,14.93
2022-09-26T10:47:31.018Z,15.09
2022-09-26T10:50:06.380Z,15.06
2022-09-26T10:52:40.122Z,14.95
2022-09-26T10:55:07.210Z,14.99
2022-09-26T10:57:40.828Z,15.06
2022-09-26T11:00:07.973Z,15.24
2022-09-26T11:02:36.155Z,15.37
2022-09-26T11:05:20.811Z,15.34
2022-09-26T11:07:49.585Z,15.30
2022-09-26T11:10:24.486Z,15.28
2022-09-26T11:13:19.534Z,15.30
2022-09-26T11:16:01.584Z,15.22
2022-09-26T11:18:44.644Z,15.17
2022-09-26T11:21:41.500Z,15.09
2022-09-26T11:24:19.973Z,15.11
2022-09-26T11:27:05.537Z,15.06
2022-09-26T11:29:55.597Z,15.08
2022-09-26T11:32:31.103Z,15.07
2022-09-26T11:35:02.991Z,15.11
2022-09-26T11:38:05.487Z,15.18
2022-09-26T11:40:41.157Z,15.15
2022-09-26T11:43:45.123Z,15.07
2022-09-26T11:46:27.434Z,15.00
2022-09-26T11:49:13.111Z,15.10
2022-09-26T11:52:07.285Z,15.16
2022-09-26T11:55:04.737Z,15.14
2022-09-26T11:57:34.336Z,15.05
2022-09-26T12:00:33.957Z,14.96
2022-09-26T12:03:40.571Z,14.92
2022-09-26T12:06:18.922Z,14.82
2022-09-26T12:09:11.517Z,14.66
2022-09-26T12:11:59.291Z,14.65
2022-09-26T12:14:45.535Z,14.64
2022-09-26T12:17:19.644Z,14.64
2022-09-26T12:20:02.547Z,14.70
2022-09-26T12:22:43.536Z,14.67
2022-09-26T12:25:26.866Z,14.91
2022-09-26T12:28:10.194Z,14.89
2022-09-26T12:30:43.451Z,14.96
2022-09-26T12:33:32.136Z,15.04
2022-09-26T12:36:24.174Z,15.16
2022-09-26T12:38:56.355Z,15.14
2022-09-26T12:41:39.600Z,15.08
2022-09-26T12:44:22.890Z,15.26
2022-09-26T12:47:04.913Z,15.10
2022-09-26T12:49:58.470Z,15.08
2022-09-26T12:52:42.224Z,15.02
2022-09-26T12:55:39.287Z,15.18
2022-09-26T12:58:05.985Z,15.33
2022-09-26T13:00:44.558Z,15.52
2022-09-26T13:03:42.533Z,15.63
2022-09-26T13:06:48.905Z,15.76
2022-09-26T13:09:55.100Z,15.56
2022-09-26T13:12:40.591Z,15.60
2022-09-26T13:15:22.461Z,15.79
2022-09-26T13:17:57.846Z,15.86
2022-09-26T13:20:38.542Z,15.76
2022-09-26T13:23:22.038Z,15.77
2022-09-26T13:25:54.187Z,15.78
2022-09-26T13:28:26.116Z,15.75
2022-09-26T13:30:59.205Z,15.67
2022-09-26T13:33:26.871Z,15.68
2022-09-26T13:35:56.343Z,15.68
2022-09-26T13:38:51.621Z,15.66
2022-09-26T13:41:53.422Z,15.55
2022-09-26T13:44:32.507Z,15.35
2022-09-26T13:47:27.089Z,15.37
2022-09-26T13:50:23.418Z,15.31
2022-09-26T13:53:07.906Z,15.26
2022-09-26T13:55:35.977Z,15.40
2022-09-26T13:58:21.054Z,15.46
2022-09-26T14:00:53.463Z,15.51
2022-09-26T14:03:20.345Z,15.38
2022-09-26T14:05:50.964Z,15.50
2022-09-26T14:08:46.774Z,15.54
2022-09-26T14:11:28.621Z,15.56
2022-09-26T14:14:22.415Z,15.56
2022-09-26T14:16:52.229Z,15.52
2022-09-26T14:19:36.854Z,15.51
2022-09-26T14:22:23.375Z,15.42
2022-09-26T14:24:51.987Z,15.49
2022-09-26T14:27:18.560Z,15.40
2022-09-26T14:30:07.329Z,15.26
2022-09-26T14:32:39.798Z,15.39
2022-09-26T14:35:31.586Z,15.30
2022-09-26T14:38:07.840Z,15.35
2022-09-26T14:40:36.593Z,15.45
2022-09-26T14:43:04.320Z,15.37
2022-09-26T14:45:32.004Z,15.41
2022-09-26T14:48:08.901Z,15.48
2022-09-26T14:51:06.208Z,15.61
2022-09-26T14:53:49.219Z,15.76
2022-09-26T14:56:16.881Z,15.91
2022-09-26T14:58:45.130Z,16.01
2022-09-26T15:01:18.041Z,16.16
2022-09-26T15:04:03.178Z,16.34
2022-09-26T15:06:35.761Z,16.38
2022-09-26T15:09:10.666Z,16.36
2022-09-26T15:11:57.130Z,16.30
2022-09-26T15:14:41.932Z,16.28
2022-09-26T15:17:29.383Z,16.23
2022-09-26T15:19:59.287Z,15.97
2022-09-26T15:22:29.036Z,15.82
2022-09-26T15:25:08.272Z,15.72
2022-09-26T15:27:35.508Z,15.53
2022-09-26T15:30:28.253Z,15.40
2022-09-26T15:33:02.655Z,15.28
2022-09-26T15:35:40.470Z,15.16
2022-09-26T15:38:12.642Z,15.10
2022-09-26T15:40:47.841Z,15.05
2022-09-26T15:43:22.556Z,15.04
2022-09-26T15:45:59.057Z,15.05
2022-09-26T15:48:31.428Z,15.02
2022-09-26T15:53:53.776Z,14.90
2022-09-26T15:56:42.589Z,14.83
2022-09-26T15:59:11.560Z,14.78
2022-09-26T16:01:42.501Z,14.70
2022-09-26T16:04:27.270Z,14.63
2022-09-26T16:07:26.791Z,14.52
2022-09-26T16:10:09.608Z,14.42
2022-09-26T16:12:39.943Z,14.36
2022-09-26T16:15:22.244Z,14.26
2022-09-26T16:17:52.748Z,14.14
2022-09-26T16:20:19.852Z,14.13
2022-09-26T16:22:51.228Z,14.08
2022-09-26T16:25:18.996Z,14.02
2022-09-26T16:27:49.487Z,13.98
2022-09-26T16:30:36.076Z,13.86
2022-09-26T16:33:02.754Z,13.80
2022-09-26T16:35:31.124Z,13.70
2022-09-26T16:38:07.450Z,13.62
2022-09-26T16:40:36.270Z,13.66
2022-09-26T16:43:17.849Z,13.62
2022-09-26T16:45:49.230Z,13.61
2022-09-26T16:48:37.747Z,13.61
2022-09-26T16:51:13.678Z,13.52
2022-09-26T16:53:40.381Z,13.51
2022-09-26T16:56:10.243Z,13.47
2022-09-26T16:58:36.957Z,13.47
2022-09-26T17:01:18.983Z,13.42
2022-09-26T17:03:46.766Z,13.40
2022-09-26T17:06:13.444Z,13.29
2022-09-26T17:08:40.347Z,13.23
2022-09-26T17:11:14.712Z,13.21
2022-09-26T17:13:42.954Z,13.20
2022-09-26T17:16:10.874Z,13.06
2022-09-26T17:18:37.749Z,13.07
2022-09-26T17:21:05.613Z,13.01
2022-09-26T17:23:41.539Z,12.98
2022-09-26T17:26:18.191Z,12.84
2022-09-26T17:28:45.269Z,12.89
2022-09-26T17:31:19.808Z,12.90
2022-09-26T17:33:51.464Z,12.87
2022-09-26T17:36:28.375Z,12.76
2022-09-26T17:38:59.183Z,12.67
2022-09-26T17:41:27.973Z,12.57
2022-09-26T17:43:59.881Z,12.62
2022-09-26T17:46:27.533Z,12.53
2022-09-26T17:48:56.106Z,12.60
2022-09-26T17:51:24.064Z,12.55
2022-09-26T17:53:52.688Z,12.59
2022-09-26T17:56:19.921Z,12.54
2022-09-26T17:58:51.323Z,12.44
2022-09-26T18:01:26.303Z,12.46
2022-09-26T18:03:59.796Z,12.41
2022-09-26T18:06:31.720Z,12.47
2022-09-26T18:09:05.211Z,12.45
2022-09-26T18:11:34.507Z,12.47
2022-09-26T18:14:04.548Z,12.50
2022-09-26T18:16:31.189Z,12.51
2022-09-26T18:18:57.969Z,12.49
2022-09-26T18:21:26.315Z,12.42
2022-09-26T18:23:59.168Z,12.38
2022-09-26T18:26:31.298Z,12.30
2022-09-26T18:29:02.435Z,12.26
2022-09-26T18:31:31.608Z,12.26
2022-09-26T18:33:58.800Z,12.24
2022-09-26T18:36:26.247Z,12.27
2022-09-26T18:38:52.952Z,12.24
2022-09-26T18:41:26.918Z,12.28
2022-09-26T18:43:55.843Z,12.26
2022-09-26T18:46:31.668Z,12.26
2022-09-26T18:48:59.951Z,12.29
2022-09-26T18:51:27.599Z,12.28
2022-09-26T18:53:54.343Z,12.27
2022-09-26T18:56:36.285Z,12.28
2022-09-26T18:59:02.987Z,12.26
2022-09-26T19:01:35.449Z,12.20
2022-09-26T19:04:05.812Z,12.21
2022-09-26T19:06:37.601Z,12.23
2022-09-26T19:09:07.727Z,12.20
2022-09-26T19:11:35.151Z,12.21
2022-09-26T19:14:10.054Z,12.18
2022-09-26T19:16:36.723Z,12.14
2022-09-26T19:19:03.454Z,12.18
2022-09-26T19:21:40.574Z,12.18
2022-09-26T19:24:38.840Z,12.10
2022-09-26T19:27:18.896Z,12.12
2022-09-26T19:29:48.970Z,12.08
2022-09-26T19:32:31.561Z,12.05
2022-09-26T19:35:01.855Z,12.00
2022-09-26T19:37:28.655Z,11.97
2022-09-26T19:39:57.725Z,11.90
2022-09-26T19:42:26.076Z,11.83
2022-09-26T19:44:53.034Z,11.93
2022-09-26T19:47:23.006Z,11.95
2022-09-26T19:49:51.792Z,11.92
2022-09-26T19:52:20.557Z,11.94
2022-09-26T19:54:47.427Z,11.93
2022-09-26T19:57:16.725Z,11.90
2022-09-26T19:59:43.816Z,11.93
2022-09-26T20:02:14.194Z,11.88
2022-09-26T20:04:40.987Z,11.82
2022-09-26T20:07:12.819Z,11.78
2022-09-26T20:09:40.302Z,11.74
2022-09-26T20:12:07.838Z,11.71
2022-09-26T20:14:34.656Z,11.66
2022-09-26T20:17:14.934Z,11.59
2022-09-26T20:19:45.993Z,11.62
2022-09-26T20:22:16.277Z,11.66
2022-09-26T20:24:44.123Z,11.68
2022-09-26T20:27:17.994Z,11.67
2022-09-26T20:30:05.814Z,11.61
2022-09-26T20:32:32.643Z,11.58
2022-09-26T20:35:00.506Z,11.63
2022-09-26T20:37:32.487Z,11.66
2022-09-26T20:40:00.700Z,11.67
2022-09-26T20:42:33.249Z,11.68
2022-09-26T20:45:02.220Z,11.62
2022-09-26T20:47:29.779Z,11.56
2022-09-26T20:50:01.072Z,11.54
2022-09-26T20:52:29.736Z,11.62
2022-09-26T20:54:57.595Z,11.60
2022-09-26T20:57:24.819Z,11.57
2022-09-26T20:59:51.841Z,11.54
2022-09-26T21:02:37.893Z,11.54
2022-09-26T21:05:16.367Z,11.52
2022-09-26T21:07:43.476Z,11.52
2022-09-26T21:10:27.011Z,11.49
2022-09-26T21:12:55.471Z,11.50
2022-09-26T21:15:24.488Z,11.47
2022-09-26T21:17:52.595Z,11.50
2022-09-26T21:20:29.232Z,11.59
2022-09-26T21:22:57.077Z,11.59
2022-09-26T21:25:25.896Z,11.57
2022-09-26T21:27:56.533Z,11.68
2022-09-26T21:30:23.486Z,11.64
2022-09-26T21:32:53.157Z,11.63
2022-09-26T21:35:20.923Z,11.62
2022-09-26T21:37:51.607Z,11.63
2022-09-26T21:40:22.144Z,11.67
2022-09-26T21:42:52.111Z,11.62
2022-09-26T21:45:23.618Z,11.57
2022-09-26T21:47:55.744Z,11.54
2022-09-26T21:50:25.962Z,11.56
2022-09-26T21:52:59.055Z,11.54
2022-09-26T21:55:33.636Z,11.45
2022-09-26T21:58:07.226Z,11.52
2022-09-26T22:00:37.106Z,11.50
2022-09-26T22:03:07.159Z,11.57
2022-09-26T22:05:33.914Z,11.55
2022-09-26T22:08:01.842Z,11.62
2022-09-26T22:10:29.426Z,11.62
2022-09-26T22:12:56.515Z,11.72
2022-09-26T22:15:23.249Z,11.68
2022-09-26T22:17:49.900Z,11.64
2022-09-26T22:20:16.681Z,11.63
2022-09-26T22:22:43.376Z,11.64
2022-09-26T22:25:10.409Z,11.62
2022-09-26T22:27:37.150Z,11.58
2022-09-26T22:30:04.729Z,11.55
2022-09-26T22:32:31.793Z,11.59
2022-09-26T22:34:58.449Z,11.60
2022-09-26T22:37:25.224Z,11.59
2022-09-26T22:39:51.951Z,11.60
2022-09-26T22:42:18.590Z,11.61
2022-09-26T22:44:45.307Z,11.55
2022-09-26T22:47:12.012Z,11.53
2022-09-26T22:49:38.655Z,11.55
2022-09-26T22:52:05.327Z,11.58
2022-09-26T22:54:32.088Z,11.59
2022-09-26T22:56:58.837Z,11.56
2022-09-26T22:59:25.671Z,11.53
2022-09-26T23:01:52.655Z,11.53
2022-09-26T23:04:19.422Z,11.56
2022-09-26T23:06:46.083Z,11.57
2022-09-26T23:09:12.770Z,11.55
2022-09-26T23:11:40.774Z,11.58
2022-09-26T23:14:07.464Z,11.55
2022-09-26T23:16:34.695Z,11.51
2022-09-26T23:19:01.493Z,11.48
2022-09-26T23:21:28.240Z,11.42
2022-09-26T23:23:58.239Z,11.38
2022-09-26T23:26:27.858Z,11.37
2022-09-26T23:28:56.748Z,11.41
2022-09-26T23:31:24.125Z,11.37
2022-09-26T23:33:51.738Z,11.42
2022-09-26T23:36:19.632Z,11.47
2022-09-26T23:38:46.811Z,11.47
2022-09-26T23:41:14.735Z,11.49
2022-09-26T23:43:42.005Z,11.50
2022-09-26T23:46:09.608Z,11.52
2022-09-26T23:48:37.167Z,11.52
2022-09-26T23:51:04.128Z,11.46
2022-09-26T23:53:31.637Z,11.47
2022-09-26T23:56:08.903Z,11.47
2022-09-26T23:58:37.180Z,11.46
